Time;durP1;ratioP1;P1;durP2;ratioP2;P2;SDS_P1;SDS_P2;PMS_P1;PMS_P2;Temp;Humidity;BMP_temperature;BMP_pressure;BME280_temperature;BME280_humidity;BME280_pressure;Samples;Min_cycle;Max_cycle;Signal;HPM_P1;HPM_P2
2022/10/14 00:00:29;;;;;;;;;;;;;;;8.27;76.75;100875.15;86089;1296;95085;-59
2022/10/14 00:02:56;;;;;;;;;;;;;;;8.31;76.82;100872.77;86031;1296;83676;-54
2022/10/14 00:05:04;;;;;;;;;;;;;;;8.34;76.65;100870.58;86065;1290;82241;-54
2022/10/14 00:07:11;;;;;;;;;;;;;;;8.40;76.53;100864.17;86043;1297;97754;-54
2022/10/14 00:09:18;;;;;;;;;;;;;;;8.41;76.61;100866.13;86035;1293;88876;-54
2022/10/14 00:11:27;;;;;;;;;;;;;;;8.41;76.43;100866.45;86061;1292;92237;-52
2022/10/14 00:13:35;;;;;;;;;;;;;;;8.39;76.27;100860.44;86026;1296;80635;-54
2022/10/14 00:15:42;;;;;;;;;;;;;;;8.35;76.48;100858.50;86042;1297;82309;-58
2022/10/14 00:17:49;;;;;;;;;;;;;;;8.31;76.34;100858.59;86058;1298;98984;-57
2022/10/14 00:19:56;;;;;;;;;;;;;;;8.27;76.23;100864.16;86061;1296;88460;-56
2022/10/14 00:22:03;;;;;;;;;;;;;;;8.22;76.28;100861.52;86030;1291;92824;-51
2022/10/14 00:24:11;;;;;;;;;;;;;;;8.16;76.12;100861.38;86039;1297;79379;-56
2022/10/14 00:26:21;;;;;;;;;;;;;;;8.11;76.16;100863.56;86082;1291;82492;-50
2022/10/14 00:28:29;;;;;;;;;;;;;;;8.03;76.16;100861.55;86101;1296;99093;-58
2022/10/14 00:30:38;;;;;;;;;;;;;;;7.96;76.31;100861.80;86085;1292;88490;-58
2022/10/14 00:32:45;;;;;;;;;;;;;;;7.91;76.34;100860.53;86065;1296;95025;-56
2022/10/14 00:34:53;;;;;;;;;;;;;;;7.84;76.35;100859.48;86074;1297;79436;-46
2022/10/14 00:37:00;;;;;;;;;;;;;;;7.78;76.43;100857.04;86122;1297;81656;-56
2022/10/14 00:39:07;;;;;;;;;;;;;;;7.70;76.64;100857.63;86055;1287;97043;-55
2022/10/14 00:41:16;;;;;;;;;;;;;;;7.63;76.55;100854.63;86087;1294;88887;-56
2022/10/14 00:43:24;;;;;;;;;;;;;;;7.56;76.70;100845.34;86112;1296;94271;-57
2022/10/14 00:45:33;;;;;;;;;;;;;;;7.51;76.86;100844.48;86055;1291;79584;-59
2022/10/14 00:47:41;;;;;;;;;;;;;;;7.47;76.81;100845.73;86071;1298;82234;-54
2022/10/14 00:49:48;;;;;;;;;;;;;;;7.46;77.03;100852.34;86048;1292;97537;-54
2022/10/14 00:51:58;;;;;;;;;;;;;;;7.45;77.16;100853.30;86070;1288;88268;-49
2022/10/14 00:54:05;;;;;;;;;;;;;;;7.43;77.62;100844.75;86048;1296;94939;-56
2022/10/14 00:56:15;;;;;;;;;;;;;;;7.42;77.26;100849.89;86033;1298;78345;-56
2022/10/14 00:58:22;;;;;;;;;;;;;;;7.43;77.27;100847.30;86067;1296;82332;-58
2022/10/14 01:00:29;;;;;;;;;;;;;;;7.42;77.43;100842.50;86056;1290;97773;-58
2022/10/14 01:02:36;;;;;;;;;;;;;;;7.40;77.48;100841.89;86058;1298;86844;-56
2022/10/14 01:04:45;;;;;;;;;;;;;;;7.39;77.48;100841.21;86002;1291;94941;-58
2022/10/14 01:07:01;;;;;;;;;;;;;;;7.38;77.56;100839.39;86010;1296;82219;-55
2022/10/14 01:09:15;;;;;;;;;;;;;;;7.38;77.54;100839.89;86061;1296;80214;-54
2022/10/14 01:11:25;;;;;;;;;;;;;;;7.38;77.63;100840.56;86032;1293;97708;-56
2022/10/14 01:13:35;;;;;;;;;;;;;;;7.41;77.68;100842.83;86068;1288;88549;-58
2022/10/14 01:15:47;;;;;;;;;;;;;;;7.40;77.61;100838.97;86043;1292;93257;-58
2022/10/14 01:18:04;;;;;;;;;;;;;;;7.38;77.73;100838.23;86050;1297;81646;-57
2022/10/14 01:20:30;;;;;;;;;;;;;;;7.36;77.68;100832.39;86045;1298;83060;-57
2022/10/14 01:22:41;;;;;;;;;;;;;;;7.39;77.53;100832.44;86059;1291;96541;-59
2022/10/14 01:24:55;;;;;;;;;;;;;;;7.41;77.89;100832.08;86097;1297;88119;-58
2022/10/14 01:27:19;;;;;;;;;;;;;;;7.47;77.87;100832.73;86050;1297;93633;-55
2022/10/14 01:29:43;;;;;;;;;;;;;;;7.57;77.99;100827.54;86030;1297;82014;-56
2022/10/14 01:31:55;;;;;;;;;;;;;;;7.65;77.89;100827.91;86063;1291;82247;-56
2022/10/14 01:34:05;;;;;;;;;;;;;;;7.76;77.88;100826.60;86047;1297;98596;-59
2022/10/14 01:36:18;;;;;;;;;;;;;;;7.88;77.89;100822.84;86042;1297;89461;-56
2022/10/14 01:38:28;;;;;;;;;;;;;;;7.91;77.71;100820.89;86029;1298;95703;-57
2022/10/14 01:40:42;;;;;;;;;;;;;;;7.92;77.55;100816.27;86037;1297;82349;-59
2022/10/14 01:42:50;;;;;;;;;;;;;;;7.98;77.58;100815.33;86045;1291;78944;-54
2022/10/14 01:45:01;;;;;;;;;;;;;;;7.95;77.69;100811.11;85987;1297;96451;-53
2022/10/14 01:47:12;;;;;;;;;;;;;;;7.98;77.64;100805.91;86025;1297;87695;-52
2022/10/14 01:49:24;;;;;;;;;;;;;;;8.02;77.34;100801.21;86023;1291;94856;-54
2022/10/14 01:51:34;;;;;;;;;;;;;;;8.00;77.54;100799.44;86011;1291;78804;-54
2022/10/14 01:53:46;;;;;;;;;;;;;;;7.99;77.47;100795.02;86045;1295;80841;-57
2022/10/14 01:55:55;;;;;;;;;;;;;;;8.00;77.40;100794.62;86070;1298;98521;-55
2022/10/14 01:58:05;;;;;;;;;;;;;;;7.98;77.43;100796.96;86080;1291;86022;-55
2022/10/14 02:00:14;;;;;;;;;;;;;;;7.94;77.31;100795.42;86025;1297;94472;-54
2022/10/14 02:02:22;;;;;;;;;;;;;;;7.91;77.34;100796.67;86060;1291;79200;-54
2022/10/14 02:04:29;;;;;;;;;;;;;;;7.87;77.37;100796.69;86068;1297;82332;-57
2022/10/14 02:06:38;;;;;;;;;;;;;;;7.82;77.37;100794.35;85997;1294;100989;-57
2022/10/14 02:08:56;;;;;;;;;;;;;;;7.77;77.40;100791.57;86109;1291;89592;-55
2022/10/14 02:11:21;;;;;;;;;;;;;;;7.70;77.36;100789.77;86099;1298;95296;-48
2022/10/14 02:13:44;;;;;;;;;;;;;;;7.61;77.44;100788.31;86068;1297;79366;-52
2022/10/14 02:16:01;;;;;;;;;;;;;;;7.56;77.65;100784.92;86070;1297;81733;-47
2022/10/14 02:18:19;;;;;;;;;;;;;;;7.52;77.69;100791.32;86090;1296;98263;-50
2022/10/14 02:20:32;;;;;;;;;;;;;;;7.48;77.82;100792.58;86052;1291;87994;-56
2022/10/14 02:22:45;;;;;;;;;;;;;;;7.45;77.78;100790.20;86054;1291;94638;-56
2022/10/14 02:24:54;;;;;;;;;;;;;;;7.46;77.89;100791.05;86030;1292;76471;-59
2022/10/14 02:27:05;;;;;;;;;;;;;;;7.47;78.05;100790.41;86059;1285;80649;-58
2022/10/14 02:29:15;;;;;;;;;;;;;;;7.48;78.09;100788.10;86041;1290;97747;-54
2022/10/14 02:31:24;;;;;;;;;;;;;;;7.50;78.23;100784.35;86074;1290;88678;-58
2022/10/14 02:33:36;;;;;;;;;;;;;;;7.52;78.12;100782.71;85999;1292;93386;-56
2022/10/14 02:35:43;;;;;;;;;;;;;;;7.54;78.27;100778.15;86045;1291;79952;-53
2022/10/14 02:37:52;;;;;;;;;;;;;;;7.57;78.33;100778.70;86031;1294;83646;-58
2022/10/14 02:40:04;;;;;;;;;;;;;;;7.60;78.29;100775.23;86024;1291;97264;-58
2022/10/14 02:42:12;;;;;;;;;;;;;;;7.63;78.26;100771.27;86059;1297;88984;-58
2022/10/14 02:44:19;;;;;;;;;;;;;;;7.66;78.41;100769.56;86041;1290;94459;-52
2022/10/14 02:46:27;;;;;;;;;;;;;;;7.68;78.36;100770.20;86061;1290;81047;-58
2022/10/14 02:48:35;;;;;;;;;;;;;;;7.70;78.38;100769.29;86026;1296;82674;-58
2022/10/14 02:50:42;;;;;;;;;;;;;;;7.71;78.41;100768.79;86069;1294;99024;-54
2022/10/14 02:52:49;;;;;;;;;;;;;;;7.73;78.32;100769.30;86064;1298;87960;-53
2022/10/14 02:54:56;;;;;;;;;;;;;;;7.74;78.38;100772.61;86059;1291;94098;-58
2022/10/14 02:57:04;;;;;;;;;;;;;;;7.77;78.37;100766.83;86049;1296;82371;-57
2022/10/14 02:59:11;;;;;;;;;;;;;;;7.77;78.27;100762.98;86041;1290;83505;-58
2022/10/14 03:01:18;;;;;;;;;;;;;;;7.78;78.35;100765.05;86056;1298;97824;-58
2022/10/14 03:03:28;;;;;;;;;;;;;;;7.79;78.42;100762.27;86049;1291;89137;-56
2022/10/14 03:05:35;;;;;;;;;;;;;;;7.79;78.38;100761.55;86047;1296;95646;-57
2022/10/14 03:07:42;;;;;;;;;;;;;;;7.84;78.50;100757.21;86047;1293;80305;-54
2022/10/14 03:09:49;;;;;;;;;;;;;;;7.89;78.51;100751.31;86056;1291;82364;-55
2022/10/14 03:11:58;;;;;;;;;;;;;;;7.95;78.50;100751.42;86078;1291;99402;-56
2022/10/14 03:14:05;;;;;;;;;;;;;;;7.98;78.32;100752.10;86050;1285;87996;-46
2022/10/14 03:16:12;;;;;;;;;;;;;;;8.05;78.27;100750.12;86006;1290;94718;-49
2022/10/14 03:18:20;;;;;;;;;;;;;;;8.11;78.20;100754.09;86045;1296;81384;-58
2022/10/14 03:20:27;;;;;;;;;;;;;;;8.15;78.21;100753.55;86055;1294;81941;-58
2022/10/14 03:22:34;;;;;;;;;;;;;;;8.21;78.09;100750.00;86076;1292;98347;-57
2022/10/14 03:24:42;;;;;;;;;;;;;;;8.26;77.87;100750.49;86062;1291;87519;-56
2022/10/14 03:26:49;;;;;;;;;;;;;;;8.23;77.82;100743.95;86057;1298;94757;-55
2022/10/14 03:28:56;;;;;;;;;;;;;;;8.22;77.78;100744.70;86074;1290;80872;-55
2022/10/14 03:31:03;;;;;;;;;;;;;;;8.17;77.73;100746.09;86044;1297;81191;-55
2022/10/14 03:33:10;;;;;;;;;;;;;;;8.11;77.79;100750.16;86101;1291;98894;-58
2022/10/14 03:35:17;;;;;;;;;;;;;;;8.08;77.57;100750.11;86085;1297;88107;-59
2022/10/14 03:37:25;;;;;;;;;;;;;;;8.02;77.73;100749.86;86072;1277;94133;-56
2022/10/14 03:39:32;;;;;;;;;;;;;;;8.00;77.80;100750.54;86090;1296;79717;-54
2022/10/14 03:41:40;;;;;;;;;;;;;;;7.98;77.81;100750.33;86084;1290;80859;-57
2022/10/14 03:43:48;;;;;;;;;;;;;;;7.97;77.89;100746.92;86052;1297;98562;-58
2022/10/14 03:45:54;;;;;;;;;;;;;;;7.94;77.96;100742.15;86033;1293;87820;-57
2022/10/14 03:48:02;;;;;;;;;;;;;;;7.91;78.05;100744.42;86039;1295;94704;-58
2022/10/14 03:50:13;;;;;;;;;;;;;;;7.89;78.02;100741.28;86049;1290;81920;-57
2022/10/14 03:52:20;;;;;;;;;;;;;;;7.89;78.00;100743.10;86091;1290;80727;-54
2022/10/14 03:54:27;;;;;;;;;;;;;;;7.87;78.22;100739.50;86062;1295;98118;-52
2022/10/14 03:56:35;;;;;;;;;;;;;;;7.88;78.13;100743.21;86055;1296;88215;-55
2022/10/14 03:58:43;;;;;;;;;;;;;;;7.90;78.02;100744.62;86072;1292;95038;-54
2022/10/14 04:00:50;;;;;;;;;;;;;;;7.91;78.21;100740.38;86008;1297;79564;-54
2022/10/14 04:03:01;;;;;;;;;;;;;;;7.91;78.21;100739.98;86080;1291;81943;-55
2022/10/14 04:05:11;;;;;;;;;;;;;;;7.93;78.29;100736.43;86026;1288;99626;-56
2022/10/14 04:07:18;;;;;;;;;;;;;;;7.95;78.26;100733.50;86085;1290;89564;-54
2022/10/14 04:09:28;;;;;;;;;;;;;;;7.94;78.26;100731.45;86033;1297;94947;-53
2022/10/14 04:11:37;;;;;;;;;;;;;;;7.94;78.33;100733.44;86041;1290;80852;-55
2022/10/14 04:13:45;;;;;;;;;;;;;;;7.94;78.28;100729.61;86086;1292;82683;-54
2022/10/14 04:15:52;;;;;;;;;;;;;;;7.94;78.30;100729.85;86035;1298;98904;-54
2022/10/14 04:18:02;;;;;;;;;;;;;;;7.92;78.26;100725.70;86038;1292;89203;-53
2022/10/14 04:20:10;;;;;;;;;;;;;;;7.90;78.28;100727.70;86058;1290;94207;-55
2022/10/14 04:22:17;;;;;;;;;;;;;;;7.86;78.44;100725.34;86038;1296;82141;-58
2022/10/14 04:24:24;;;;;;;;;;;;;;;7.80;78.43;100718.40;86045;1291;82975;-56
2022/10/14 04:26:32;;;;;;;;;;;;;;;7.78;78.41;100716.98;86047;1298;97722;-58
2022/10/14 04:28:39;;;;;;;;;;;;;;;7.76;78.53;100712.42;86024;1291;88363;-59
2022/10/14 04:30:46;;;;;;;;;;;;;;;7.81;78.53;100709.20;85701;1290;473485;-58
2022/10/14 04:32:53;;;;;;;;;;;;;;;7.83;78.38;100705.94;86095;1296;80599;-57
2022/10/14 04:35:00;;;;;;;;;;;;;;;7.88;78.53;100705.38;86058;1290;82297;-57
2022/10/14 04:37:10;;;;;;;;;;;;;;;7.90;78.34;100706.02;86042;1290;98741;-56
2022/10/14 04:39:17;;;;;;;;;;;;;;;7.93;78.51;100702.61;86061;1290;87110;-58
2022/10/14 04:41:25;;;;;;;;;;;;;;;7.96;78.30;100698.40;86076;1296;93032;-58
2022/10/14 04:43:33;;;;;;;;;;;;;;;7.95;78.35;100695.05;86092;1291;80669;-55
2022/10/14 04:45:41;;;;;;;;;;;;;;;7.92;78.40;100694.66;86016;1290;81518;-56
2022/10/14 04:47:49;;;;;;;;;;;;;;;7.94;78.33;100696.42;86058;1296;97502;-53
2022/10/14 04:49:57;;;;;;;;;;;;;;;7.93;78.19;100690.63;86051;1290;87274;-54
2022/10/14 04:52:05;;;;;;;;;;;;;;;7.90;78.33;100688.64;86035;1290;94074;-55
2022/10/14 04:54:12;;;;;;;;;;;;;;;7.86;78.27;100691.95;86024;1296;79703;-54
2022/10/14 04:56:19;;;;;;;;;;;;;;;7.83;78.41;100698.91;86053;1296;82569;-52
2022/10/14 04:58:29;;;;;;;;;;;;;;;7.79;78.35;100698.70;86037;1291;98206;-55
2022/10/14 05:00:36;;;;;;;;;;;;;;;7.77;78.38;100699.36;86068;1290;88369;-53
2022/10/14 05:02:43;;;;;;;;;;;;;;;7.76;78.40;100698.26;86023;1298;95351;-53
2022/10/14 05:04:50;;;;;;;;;;;;;;;7.76;78.50;100697.52;86058;1290;79868;-54
2022/10/14 05:06:57;;;;;;;;;;;;;;;7.77;78.49;100698.60;86069;1298;79964;-56
2022/10/14 05:09:07;;;;;;;;;;;;;;;7.79;78.47;100696.11;86066;1290;98241;-53
2022/10/14 05:11:15;;;;;;;;;;;;;;;7.80;78.52;100698.88;86091;1282;88383;-55
2022/10/14 05:13:25;;;;;;;;;;;;;;;7.79;78.57;100698.30;86100;1290;94527;-58
2022/10/14 05:15:34;;;;;;;;;;;;;;;7.79;78.59;100694.50;86081;1297;76390;-57
2022/10/14 05:17:43;;;;;;;;;;;;;;;7.82;78.71;100691.88;86096;1291;81363;-51
2022/10/14 05:19:51;;;;;;;;;;;;;;;7.83;78.81;100689.69;86074;1294;98454;-55
2022/10/14 05:21:58;;;;;;;;;;;;;;;7.86;78.83;100690.71;86080;1290;88922;-55
2022/10/14 05:24:06;;;;;;;;;;;;;;;7.90;78.71;100691.73;86044;1292;95834;-49
2022/10/14 05:26:15;;;;;;;;;;;;;;;7.91;78.87;100693.05;86041;1293;81031;-54
2022/10/14 05:28:22;;;;;;;;;;;;;;;7.98;78.87;100693.70;86108;1290;81219;-54
2022/10/14 05:30:30;;;;;;;;;;;;;;;8.05;79.07;100698.30;86042;1296;97366;-55
2022/10/14 05:32:42;;;;;;;;;;;;;;;8.13;78.91;100698.45;86050;1282;88773;-53
2022/10/14 05:34:49;;;;;;;;;;;;;;;8.22;78.87;100695.52;86028;1291;95259;-56
2022/10/14 05:36:57;;;;;;;;;;;;;;;8.33;78.87;100695.99;86031;1290;81274;-56
2022/10/14 05:39:07;;;;;;;;;;;;;;;8.43;78.83;100694.61;86045;1282;82542;-54
2022/10/14 05:41:14;;;;;;;;;;;;;;;8.51;78.79;100694.98;86049;1290;97706;-52
2022/10/14 05:43:21;;;;;;;;;;;;;;;8.66;78.71;100696.75;86051;1290;86135;-58
2022/10/14 05:45:30;;;;;;;;;;;;;;;8.82;78.62;100694.61;86013;1291;94641;-59
2022/10/14 05:47:39;;;;;;;;;;;;;;;8.93;78.48;100697.46;86029;1298;82428;-53
2022/10/14 05:49:46;;;;;;;;;;;;;;;9.07;78.31;100691.60;86027;1290;82848;-48
2022/10/14 05:51:55;;;;;;;;;;;;;;;9.13;78.11;100695.02;86048;1298;99593;-54
2022/10/14 05:54:02;;;;;;;;;;;;;;;9.19;77.89;100697.80;86057;1291;87784;-54
2022/10/14 05:56:11;;;;;;;;;;;;;;;9.20;77.86;100696.35;86049;1290;95531;-54
2022/10/14 05:58:18;;;;;;;;;;;;;;;9.30;77.78;100695.73;86058;1292;80787;-57
2022/10/14 06:00:29;;;;;;;;;;;;;;;9.39;77.59;100696.89;86068;1290;82607;-58
2022/10/14 06:02:36;;;;;;;;;;;;;;;9.42;77.43;100694.39;86080;1298;97686;-58
2022/10/14 06:04:45;;;;;;;;;;;;;;;9.47;77.37;100696.69;86056;1291;88163;-57
2022/10/14 06:06:52;;;;;;;;;;;;;;;9.56;77.18;100695.09;86072;1290;94989;-57
2022/10/14 06:09:01;;;;;;;;;;;;;;;9.56;77.13;100696.95;86063;1290;80822;-58
2022/10/14 06:11:08;;;;;;;;;;;;;;;9.59;76.89;100699.09;86089;1284;81858;-56
2022/10/14 06:13:17;;;;;;;;;;;;;;;9.56;76.53;100696.96;86080;1290;99615;-54
2022/10/14 06:15:27;;;;;;;;;;;;;;;9.59;76.70;100691.55;86046;1298;88536;-54
2022/10/14 06:17:34;;;;;;;;;;;;;;;9.65;76.65;100689.23;86076;1290;94884;-56
2022/10/14 06:19:41;;;;;;;;;;;;;;;9.78;76.61;100697.42;86055;1290;80287;-55
2022/10/14 06:21:48;;;;;;;;;;;;;;;9.85;76.51;100695.73;85999;1292;82716;-56
2022/10/14 06:23:56;;;;;;;;;;;;;;;9.86;76.46;100692.73;86060;1283;96710;-55
2022/10/14 06:26:08;;;;;;;;;;;;;;;9.85;76.32;100696.77;86074;1290;87433;-56
2022/10/14 06:28:18;;;;;;;;;;;;;;;9.79;76.22;100692.58;86042;1296;95244;-56
2022/10/14 06:30:26;;;;;;;;;;;;;;;9.70;76.03;100701.88;86094;1291;80510;-57
2022/10/14 06:32:34;;;;;;;;;;;;;;;9.63;76.13;100708.89;86031;1292;82847;-54
2022/10/14 06:34:42;;;;;;;;;;;;;;;9.59;76.15;100707.21;86043;1296;97587;-54
2022/10/14 06:36:50;;;;;;;;;;;;;;;9.58;76.22;100703.89;86028;1290;88556;-54
2022/10/14 06:38:57;;;;;;;;;;;;;;;9.61;76.28;100704.29;86042;1282;94157;-54
2022/10/14 06:41:04;;;;;;;;;;;;;;;9.61;76.27;100704.04;86045;1291;82305;-55
2022/10/14 06:43:13;;;;;;;;;;;;;;;9.68;76.22;100702.19;86092;1298;81933;-54
2022/10/14 06:45:21;;;;;;;;;;;;;;;9.76;76.18;100703.02;86086;1290;98930;-54
2022/10/14 06:47:28;;;;;;;;;;;;;;;9.84;76.15;100706.39;86159;1290;86836;-57
2022/10/14 06:49:35;;;;;;;;;;;;;;;9.92;76.14;100706.88;86130;1290;95399;-58
2022/10/14 06:51:44;;;;;;;;;;;;;;;10.03;76.07;100709.00;86153;1290;80635;-58
2022/10/14 06:53:51;;;;;;;;;;;;;;;10.09;76.04;100714.37;86178;1291;81575;-54
2022/10/14 06:56:03;;;;;;;;;;;;;;;10.21;75.95;100707.91;86127;1290;98546;-55
2022/10/14 06:58:10;;;;;;;;;;;;;;;10.33;75.88;100714.15;86126;1290;86697;-54
2022/10/14 07:00:19;;;;;;;;;;;;;;;10.42;75.80;100714.03;86103;1291;94153;-54
2022/10/14 07:02:27;;;;;;;;;;;;;;;10.51;75.84;100718.66;86121;1298;79696;-56
2022/10/14 07:04:35;;;;;;;;;;;;;;;10.76;75.70;100719.86;86129;1290;82236;-58
2022/10/14 07:06:44;;;;;;;;;;;;;;;10.98;75.41;100717.02;86133;1296;95890;-51
2022/10/14 07:08:52;;;;;;;;;;;;;;;11.08;75.23;100718.23;86103;1297;89467;-53
2022/10/14 07:10:59;;;;;;;;;;;;;;;11.20;74.96;100718.11;86088;1290;95454;-55
2022/10/14 07:13:07;;;;;;;;;;;;;;;11.31;74.44;100714.85;86125;1284;80617;-55
2022/10/14 07:15:14;;;;;;;;;;;;;;;11.32;74.33;100714.17;86048;1290;81997;-54
2022/10/14 07:17:22;;;;;;;;;;;;;;;11.30;74.29;100716.33;86110;1297;98884;-54
2022/10/14 07:19:32;;;;;;;;;;;;;;;11.36;74.07;100715.66;86116;1290;88582;-55
2022/10/14 07:21:45;;;;;;;;;;;;;;;11.36;73.69;100715.96;86007;1291;95784;-54
2022/10/14 07:23:54;;;;;;;;;;;;;;;11.32;73.58;100712.45;86034;1291;81901;-55
2022/10/14 07:26:01;;;;;;;;;;;;;;;11.39;73.41;100713.27;86116;1290;80726;-50
2022/10/14 07:28:08;;;;;;;;;;;;;;;11.47;73.36;100712.41;86140;1297;98413;-53
2022/10/14 07:30:18;;;;;;;;;;;;;;;11.81;73.51;100704.97;86096;1290;88061;-54
2022/10/14 07:32:25;;;;;;;;;;;;;;;12.25;73.00;100706.56;86158;1284;94607;-58
2022/10/14 07:34:33;;;;;;;;;;;;;;;12.86;72.83;100704.66;86158;1290;79970;-57
2022/10/14 07:36:43;;;;;;;;;;;;;;;13.52;72.17;100705.27;86115;1297;81059;-58
2022/10/14 07:38:50;;;;;;;;;;;;;;;14.09;71.78;100703.07;86132;1290;97075;-56
2022/10/14 07:41:02;;;;;;;;;;;;;;;14.75;70.96;100701.77;86095;1291;86369;-56
2022/10/14 07:43:09;;;;;;;;;;;;;;;15.08;69.68;100698.95;86089;1297;95684;-57
2022/10/14 07:45:20;;;;;;;;;;;;;;;14.95;68.97;100698.52;86085;1290;80202;-55
2022/10/14 07:47:29;;;;;;;;;;;;;;;14.52;67.98;100699.05;86127;1292;81627;-55
2022/10/14 07:49:36;;;;;;;;;;;;;;;14.19;68.19;100697.00;86143;1290;98857;-55
2022/10/14 07:51:45;;;;;;;;;;;;;;;13.95;68.15;100698.47;86114;1290;88897;-56
2022/10/14 07:53:52;;;;;;;;;;;;;;;13.75;68.06;100698.40;86102;1290;95127;-55
2022/10/14 07:56:00;;;;;;;;;;;;;;;14.10;68.09;100691.54;86071;1290;80915;-55
2022/10/14 07:58:07;;;;;;;;;;;;;;;14.36;67.71;100690.65;86079;1290;81355;-54
2022/10/14 08:00:15;;;;;;;;;;;;;;;14.49;67.32;100692.85;86093;1290;97429;-55
2022/10/14 08:02:22;;;;;;;;;;;;;;;14.48;66.96;100691.30;86136;1291;86573;-55
2022/10/14 08:04:32;;;;;;;;;;;;;;;14.66;66.62;100690.57;86114;1290;95200;-53
2022/10/14 08:06:40;;;;;;;;;;;;;;;14.70;66.47;100691.71;86100;1290;80149;-54
2022/10/14 08:08:51;;;;;;;;;;;;;;;14.89;66.58;100692.86;86084;1291;82099;-55
2022/10/14 08:11:07;;;;;;;;;;;;;;;14.96;65.39;100692.86;86118;1291;99107;-54
2022/10/14 08:13:14;;;;;;;;;;;;;;;14.99;65.72;100691.69;86113;1297;88556;-53
2022/10/14 08:15:21;;;;;;;;;;;;;;;14.95;65.47;100693.20;86128;1290;92448;-56
2022/10/14 08:17:30;;;;;;;;;;;;;;;14.97;65.43;100691.02;86132;1290;79432;-59
2022/10/14 08:19:40;;;;;;;;;;;;;;;15.03;65.12;100689.38;86142;1282;81213;-59
2022/10/14 08:21:47;;;;;;;;;;;;;;;14.91;65.34;100688.09;86139;1298;98793;-58
2022/10/14 08:23:54;;;;;;;;;;;;;;;14.83;65.53;100687.98;86158;1290;88469;-57
2022/10/14 08:26:03;;;;;;;;;;;;;;;14.74;65.42;100691.73;86077;1284;95533;-57
2022/10/14 08:28:11;;;;;;;;;;;;;;;14.62;65.33;100697.35;86099;1290;80479;-55
2022/10/14 08:30:25;;;;;;;;;;;;;;;14.50;65.46;100703.40;86110;1298;81163;-55
2022/10/14 08:32:34;;;;;;;;;;;;;;;14.44;65.63;100707.83;86140;1290;99051;-61
2022/10/14 08:34:41;;;;;;;;;;;;;;;14.39;65.78;100703.30;86092;1297;88591;-59
2022/10/14 08:36:48;;;;;;;;;;;;;;;14.31;65.65;100707.48;86107;1290;94985;-59
2022/10/14 08:38:56;;;;;;;;;;;;;;;14.23;65.71;100706.70;86125;1290;79921;-59
2022/10/14 08:41:10;;;;;;;;;;;;;;;14.20;65.93;100706.41;86131;1291;82197;-57
2022/10/14 08:43:24;;;;;;;;;;;;;;;14.17;66.19;100701.30;86126;1290;97324;-55
2022/10/14 08:45:35;;;;;;;;;;;;;;;14.16;66.23;100700.96;86115;1290;86785;-58
2022/10/14 08:47:45;;;;;;;;;;;;;;;14.15;66.28;100700.51;86121;1290;95215;-56
2022/10/14 08:50:04;;;;;;;;;;;;;;;14.22;66.40;100703.14;86107;1290;80595;-56
2022/10/14 08:52:15;;;;;;;;;;;;;;;14.30;66.47;100702.62;86114;1291;82312;-55
2022/10/14 08:54:33;;;;;;;;;;;;;;;14.42;65.69;100702.14;86061;1293;101223;-59
2022/10/14 08:56:42;;;;;;;;;;;;;;;14.54;65.81;100701.23;86051;1297;88395;-59
2022/10/14 08:58:54;;;;;;;;;;;;;;;14.80;65.67;100699.36;86112;1290;94206;-54
2022/10/14 09:01:03;;;;;;;;;;;;;;;15.01;65.52;100696.91;86118;1298;81544;-57
2022/10/14 09:03:19;;;;;;;;;;;;;;;15.10;65.14;100694.86;86153;1298;81712;-55
2022/10/14 09:05:27;;;;;;;;;;;;;;;15.17;64.79;100689.61;86157;1291;99615;-55
2022/10/14 09:07:37;;;;;;;;;;;;;;;15.21;64.97;100682.56;86172;1291;87047;-58
2022/10/14 09:09:47;;;;;;;;;;;;;;;15.45;64.85;100683.73;86089;1298;94661;-60
2022/10/14 09:11:59;;;;;;;;;;;;;;;15.64;64.10;100680.80;86154;1289;79570;-58
2022/10/14 09:14:10;;;;;;;;;;;;;;;15.65;63.70;100678.45;86116;1298;82475;-57
2022/10/14 09:16:20;;;;;;;;;;;;;;;15.88;64.21;100674.41;86138;1291;97716;-58
2022/10/14 09:18:32;;;;;;;;;;;;;;;16.07;63.92;100674.39;86130;1291;88862;-56
2022/10/14 09:20:48;;;;;;;;;;;;;;;16.16;63.18;100674.86;86127;1289;95486;-54
2022/10/14 09:23:02;;;;;;;;;;;;;;;16.06;63.06;100682.70;86105;1291;80195;-60
2022/10/14 09:25:14;;;;;;;;;;;;;;;15.94;63.11;100685.65;86112;1291;83284;-58
2022/10/14 09:27:23;;;;;;;;;;;;;;;15.81;62.83;100686.48;86135;1297;98609;-55
2022/10/14 09:29:33;;;;;;;;;;;;;;;15.55;62.97;100683.46;86137;1291;88649;-55
2022/10/14 09:31:41;;;;;;;;;;;;;;;15.39;63.45;100678.14;86098;1290;95159;-55
2022/10/14 09:33:51;;;;;;;;;;;;;;;15.51;63.50;100677.41;86101;1297;80119;-53
2022/10/14 09:35:59;;;;;;;;;;;;;;;15.69;63.71;100676.26;86105;1290;81252;-57
2022/10/14 09:38:08;;;;;;;;;;;;;;;15.81;63.56;100677.63;86005;1281;99102;-57
2022/10/14 09:40:26;;;;;;;;;;;;;;;15.71;63.07;100681.95;86043;1291;87625;-59
2022/10/14 09:42:48;;;;;;;;;;;;;;;15.54;63.63;100681.25;86039;1283;92733;-58
2022/10/14 09:45:13;;;;;;;;;;;;;;;15.56;63.59;100684.80;85939;1275;79946;-56
2022/10/14 09:47:20;;;;;;;;;;;;;;;15.55;63.69;100681.16;86048;1296;82872;-56
2022/10/14 09:49:37;;;;;;;;;;;;;;;15.59;63.73;100679.61;85895;1297;98498;-56
2022/10/14 09:51:46;;;;;;;;;;;;;;;15.60;63.42;100679.19;87141;1283;88318;-57
2022/10/14 09:53:55;;;;;;;;;;;;;;;15.50;63.76;100679.59;87036;1290;94339;-58
2022/10/14 09:56:10;;;;;;;;;;;;;;;15.51;63.56;100680.67;86505;1284;79788;-57
2022/10/14 09:58:23;;;;;;;;;;;;;;;15.45;63.54;100677.45;85999;1290;80926;-54
2022/10/14 10:00:32;;;;;;;;;;;;;;;15.44;63.67;100673.84;85986;1290;97503;-50
2022/10/14 10:02:43;;;;;;;;;;;;;;;15.39;63.87;100670.88;86019;1290;87981;-54
2022/10/14 10:04:53;;;;;;;;;;;;;;;15.37;64.07;100671.73;86058;1297;94959;-54
2022/10/14 10:07:04;;;;;;;;;;;;;;;15.43;63.86;100672.70;86091;1296;79709;-56
2022/10/14 10:09:20;;;;;;;;;;;;;;;15.55;64.06;100672.66;86100;1297;83553;-55
2022/10/14 10:11:36;;;;;;;;;;;;;;;15.68;64.21;100668.09;86067;1290;97570;-55
2022/10/14 10:13:47;;;;;;;;;;;;;;;15.81;64.13;100670.00;86142;1290;88056;-55
2022/10/14 10:16:01;;;;;;;;;;;;;;;15.92;64.24;100668.61;86086;1290;95294;-56
2022/10/14 10:18:18;;;;;;;;;;;;;;;15.99;64.14;100672.46;86105;1297;79656;-55
2022/10/14 10:20:30;;;;;;;;;;;;;;;16.01;63.64;100668.87;86097;1290;82635;-57
2022/10/14 10:22:40;;;;;;;;;;;;;;;16.02;63.78;100664.98;86109;1290;99244;-57
2022/10/14 10:24:51;;;;;;;;;;;;;;;16.08;63.75;100663.73;86137;1290;88052;-57
2022/10/14 10:26:59;;;;;;;;;;;;;;;16.09;63.54;100665.88;86131;1297;93161;-57
2022/10/14 10:29:22;;;;;;;;;;;;;;;16.01;63.26;100663.98;86092;1290;79766;-52
2022/10/14 10:32:07;;;;;;;;;;;;;;;16.02;63.29;100661.43;86097;1297;82080;-56
2022/10/14 10:34:39;;;;;;;;;;;;;;;16.21;63.49;100657.04;85780;1297;98457;-60
2022/10/14 10:36:56;;;;;;;;;;;;;;;16.41;63.49;100656.92;86039;1297;88817;-56
2022/10/14 10:39:06;;;;;;;;;;;;;;;16.46;63.14;100657.90;86049;1291;95265;-59
2022/10/14 10:41:31;;;;;;;;;;;;;;;16.48;62.66;100655.76;86081;1297;79651;-57
2022/10/14 10:43:56;;;;;;;;;;;;;;;16.44;62.74;100647.89;86053;1290;81940;-56
2022/10/14 10:46:13;;;;;;;;;;;;;;;16.44;62.81;100647.23;86052;1290;97332;-57
2022/10/14 10:48:26;;;;;;;;;;;;;;;16.52;62.86;100643.95;86106;1297;88890;-54
2022/10/14 10:50:38;;;;;;;;;;;;;;;16.53;62.56;100644.78;86035;1290;95542;-56
2022/10/14 10:52:56;;;;;;;;;;;;;;;16.56;62.70;100645.79;86063;1290;80718;-56
2022/10/14 10:55:12;;;;;;;;;;;;;;;16.55;62.79;100647.00;86065;1296;81859;-55
2022/10/14 10:57:30;;;;;;;;;;;;;;;16.48;62.76;100648.11;86061;1283;98545;-55
2022/10/14 10:59:49;;;;;;;;;;;;;;;16.40;62.83;100645.71;86101;1290;87846;-59
2022/10/14 11:02:04;;;;;;;;;;;;;;;16.34;62.81;100642.84;86112;1290;93850;-59
2022/10/14 11:04:26;;;;;;;;;;;;;;;16.31;63.18;100641.16;86092;1297;80379;-58
2022/10/14 11:14:07;;;;;;;;;;;;;;;16.60;63.17;100627.54;86059;1290;94328;-55
2022/10/14 11:16:18;;;;;;;;;;;;;;;16.67;63.32;100619.46;86074;1297;80562;-55
2022/10/14 11:18:34;;;;;;;;;;;;;;;16.70;63.31;100618.50;86099;1297;82807;-54
2022/10/14 11:20:52;;;;;;;;;;;;;;;16.68;63.09;100623.00;86056;1290;96899;-54